< < Back
Terminal Aerodrome Forecast


Current Version              Previous Versions:   1  2  3  4  5  6  7  8  9  

Terminal Aerodrome Forecast

844
FTUS42 KCHS 012202 AAE
TAFCHS
TAF AMD
KCHS 012202Z 0122/0218 VRB06KT P6SM VCTS SCT025CB BKN060
      TEMPO 0122/0123 VRB15G20KT 6SM -SHRA BKN050
     FM012300 19007KT P6SM SCT025 BKN250
     FM020800 22006KT P6SM SCT010 BKN035=

Latest METAR

504
SAUS80 KWBC 012300 RRI
MTRCHS
METAR KCHS 012256Z 16005KT 10SM FEW023 BKN070 OVC200 24/21 A3005 RMK AO2
RAB35E45 TSE48 SLP174 TS DSIPTD P0000 T02440211


USA.gov is the U.S. government's official web portal to all federal, state and local government web resources and services.